Time;durP1;ratioP1;P1;durP2;ratioP2;P2;SDS_P1;SDS_P2;PMS_P1;PMS_P2;Temp;Humidity;BMP_temperature;BMP_pressure;BME280_temperature;BME280_humidity;BME280_pressure;Samples;Min_cycle;Max_cycle;Signal;HPM_P1;HPM_P2
2022/03/07 00:01:34;;;;;;;4.37;2.73;;;;;;;;;;4985471;28;20411;-58
2022/03/07 00:04:02;;;;;;;4.20;2.70;;;;;;;;;;4988471;28;20959;-60
2022/03/07 00:06:27;;;;;;;5.70;3.35;;;;;;;;;;4983639;28;20026;-58
2022/03/07 00:08:52;;;;;;;4.43;2.70;;;;;;;;;;4983596;28;20041;-59
2022/03/07 00:11:18;;;;;;;4.20;2.78;;;;;;;;;;4984137;28;20037;-59
2022/03/07 00:13:43;;;;;;;5.18;2.80;;;;;;;;;;4983914;28;20095;-58
2022/03/07 00:16:08;;;;;;;5.03;2.95;;;;;;;;;;4983286;28;20137;-59
2022/03/07 00:18:34;;;;;;;4.70;3.05;;;;;;;;;;4983993;28;20499;-59
2022/03/07 00:20:59;;;;;;;4.90;3.25;;;;;;;;;;4983690;28;20169;-60
2022/03/07 00:23:24;;;;;;;5.00;3.07;;;;;;;;;;4983674;28;20476;-59
2022/03/07 00:25:49;;;;;;;4.67;3.13;;;;;;;;;;4982392;28;20270;-59
2022/03/07 00:28:15;;;;;;;4.78;3.10;;;;;;;;;;4983745;28;20027;-60
2022/03/07 00:30:41;;;;;;;4.20;2.33;;;;;;;;;;4983178;28;20041;-59
2022/03/07 00:33:06;;;;;;;5.50;3.23;;;;;;;;;;4983644;28;20026;-58
2022/03/07 00:35:31;;;;;;;5.30;2.97;;;;;;;;;;4983637;28;20027;-59
2022/03/07 00:37:57;;;;;;;5.50;3.20;;;;;;;;;;4983463;28;20564;-60
2022/03/07 00:40:22;;;;;;;5.03;3.20;;;;;;;;;;4983741;28;20865;-59
2022/03/07 00:42:47;;;;;;;4.20;2.85;;;;;;;;;;4983641;28;20340;-60
2022/03/07 00:45:12;;;;;;;4.53;2.80;;;;;;;;;;4983002;28;20568;-59
2022/03/07 00:47:38;;;;;;;4.47;2.90;;;;;;;;;;4983715;28;20133;-60
2022/03/07 00:50:03;;;;;;;3.83;2.63;;;;;;;;;;4983501;28;20278;-59
2022/03/07 00:52:29;;;;;;;4.53;2.75;;;;;;;;;;4982098;28;20030;-59
2022/03/07 00:54:54;;;;;;;4.93;2.87;;;;;;;;;;4983166;28;20037;-60
2022/03/07 00:57:19;;;;;;;4.30;2.80;;;;;;;;;;4983263;28;20043;-60
2022/03/07 00:59:44;;;;;;;4.53;2.83;;;;;;;;;;4990290;28;20265;-59
2022/03/07 01:02:10;;;;;;;4.53;2.63;;;;;;;;;;5002901;28;20069;-57
2022/03/07 01:04:35;;;;;;;3.88;2.35;;;;;;;;;;5003989;28;20025;-59
2022/03/07 01:07:02;;;;;;;4.40;2.90;;;;;;;;;;4989169;28;20026;-60
2022/03/07 01:09:27;;;;;;;4.90;3.10;;;;;;;;;;4986891;28;20105;-58
2022/03/07 01:11:52;;;;;;;4.00;2.70;;;;;;;;;;4984334;28;20101;-57
2022/03/07 01:14:17;;;;;;;4.07;2.53;;;;;;;;;;4986189;28;20125;-58
2022/03/07 01:16:43;;;;;;;3.97;2.43;;;;;;;;;;4985587;28;20460;-60
2022/03/07 01:19:08;;;;;;;4.53;2.93;;;;;;;;;;4985778;28;20373;-59
2022/03/07 01:21:33;;;;;;;4.15;2.75;;;;;;;;;;4985903;28;20246;-59
2022/03/07 01:23:59;;;;;;;4.33;2.60;;;;;;;;;;4985461;28;20723;-60
2022/03/07 01:26:24;;;;;;;4.20;2.43;;;;;;;;;;4984164;28;20718;-59
2022/03/07 01:28:49;;;;;;;4.40;2.87;;;;;;;;;;4985081;28;20269;-59
2022/03/07 01:31:14;;;;;;;5.10;2.63;;;;;;;;;;4984896;28;20026;-58
2022/03/07 01:33:39;;;;;;;3.90;2.53;;;;;;;;;;4985952;28;20261;-59
2022/03/07 01:36:05;;;;;;;4.00;2.50;;;;;;;;;;4986140;28;20277;-59
2022/03/07 01:38:30;;;;;;;4.40;2.85;;;;;;;;;;4985119;28;20034;-59
2022/03/07 01:40:55;;;;;;;4.25;2.60;;;;;;;;;;4985223;28;20034;-60
2022/03/07 01:43:21;;;;;;;4.47;2.43;;;;;;;;;;4985379;28;20101;-60
2022/03/07 01:45:46;;;;;;;3.97;2.38;;;;;;;;;;4985160;28;20399;-59
2022/03/07 01:48:12;;;;;;;3.80;2.43;;;;;;;;;;4985761;28;20021;-60
2022/03/07 01:50:37;;;;;;;4.45;2.60;;;;;;;;;;4985672;28;20283;-60
2022/03/07 01:53:03;;;;;;;3.40;2.07;;;;;;;;;;5000170;28;20022;-59
2022/03/07 01:55:29;;;;;;;4.07;2.50;;;;;;;;;;5000830;28;20028;-59
2022/03/07 01:57:54;;;;;;;3.67;2.50;;;;;;;;;;4984832;28;20337;-59
2022/03/07 02:00:20;;;;;;;5.23;2.90;;;;;;;;;;4984139;28;20028;-59
2022/03/07 02:02:45;;;;;;;3.97;2.92;;;;;;;;;;4984542;28;20045;-59
2022/03/07 02:05:10;;;;;;;4.95;2.50;;;;;;;;;;4984175;28;20598;-60
2022/03/07 02:07:36;;;;;;;3.80;2.30;;;;;;;;;;4985634;28;20025;-57
2022/03/07 02:10:01;;;;;;;4.07;2.38;;;;;;;;;;4986559;28;20267;-59
2022/03/07 02:12:27;;;;;;;4.40;2.40;;;;;;;;;;4985979;28;20835;-59
2022/03/07 02:14:52;;;;;;;4.65;2.50;;;;;;;;;;4985577;28;20269;-59
2022/03/07 02:17:17;;;;;;;4.60;2.60;;;;;;;;;;4987031;28;20550;-59
2022/03/07 02:19:42;;;;;;;4.57;2.80;;;;;;;;;;5006247;28;20547;-59
2022/03/07 02:22:08;;;;;;;3.50;2.30;;;;;;;;;;5005924;28;20257;-60
2022/03/07 02:24:33;;;;;;;3.97;2.50;;;;;;;;;;5006557;28;20351;-58
2022/03/07 02:27:02;;;;;;;4.23;2.67;;;;;;;;;;5009272;28;20022;-60
2022/03/07 02:29:28;;;;;;;4.38;2.45;;;;;;;;;;5007844;28;20320;-59
2022/03/07 02:31:53;;;;;;;3.80;2.50;;;;;;;;;;5005297;28;20490;-60
2022/03/07 02:34:18;;;;;;;4.63;2.77;;;;;;;;;;5005046;28;20026;-59
2022/03/07 02:36:44;;;;;;;3.60;2.47;;;;;;;;;;4990418;28;20297;-60
2022/03/07 02:39:09;;;;;;;3.67;2.30;;;;;;;;;;4984983;28;20026;-60
2022/03/07 02:41:35;;;;;;;4.53;2.55;;;;;;;;;;4985590;28;20022;-60
2022/03/07 02:44:01;;;;;;;4.43;2.75;;;;;;;;;;4985204;28;20026;-60
2022/03/07 02:46:26;;;;;;;4.27;2.67;;;;;;;;;;4985024;28;20048;-58
2022/03/07 02:48:51;;;;;;;4.23;2.60;;;;;;;;;;4985434;28;20316;-59
2022/03/07 02:51:16;;;;;;;4.73;2.77;;;;;;;;;;4985235;28;20273;-60
2022/03/07 02:53:42;;;;;;;4.43;2.60;;;;;;;;;;4984880;28;20022;-59
2022/03/07 02:56:07;;;;;;;4.20;2.33;;;;;;;;;;4985217;28;20026;-60
2022/03/07 02:58:32;;;;;;;4.45;2.42;;;;;;;;;;4992600;28;20319;-59
2022/03/07 03:00:57;;;;;;;4.33;2.47;;;;;;;;;;4994869;28;20301;-60
2022/03/07 03:03:23;;;;;;;4.20;2.73;;;;;;;;;;4997282;28;20349;-59
2022/03/07 03:05:48;;;;;;;4.70;2.70;;;;;;;;;;4985762;28;20270;-57
2022/03/07 03:08:13;;;;;;;4.20;2.40;;;;;;;;;;4985118;28;20034;-57
2022/03/07 03:10:38;;;;;;;4.33;2.60;;;;;;;;;;4984835;28;20339;-58
2022/03/07 03:13:03;;;;;;;3.83;2.43;;;;;;;;;;4984207;28;20115;-60
2022/03/07 03:15:29;;;;;;;4.33;2.70;;;;;;;;;;4984083;28;20077;-57
2022/03/07 03:17:54;;;;;;;3.87;2.70;;;;;;;;;;4984889;28;20297;-59
2022/03/07 03:20:19;;;;;;;4.67;2.70;;;;;;;;;;4996345;28;20952;-59
2022/03/07 03:22:44;;;;;;;4.23;2.53;;;;;;;;;;5004257;28;20645;-58
2022/03/07 03:25:10;;;;;;;4.10;2.28;;;;;;;;;;5002512;28;20474;-59
2022/03/07 03:27:35;;;;;;;5.22;2.53;;;;;;;;;;4989806;28;20520;-56
2022/03/07 03:30:01;;;;;;;3.47;2.25;;;;;;;;;;5002809;28;20030;-57
2022/03/07 03:32:26;;;;;;;3.67;2.30;;;;;;;;;;5004106;28;20032;-58
2022/03/07 03:34:52;;;;;;;4.07;2.60;;;;;;;;;;5003736;28;20026;-60
2022/03/07 03:37:17;;;;;;;4.63;2.80;;;;;;;;;;4984778;28;20061;-56
2022/03/07 03:39:42;;;;;;;4.83;2.60;;;;;;;;;;4984164;28;20018;-57
2022/03/07 03:42:08;;;;;;;4.00;2.43;;;;;;;;;;4984246;28;20570;-57
2022/03/07 03:44:33;;;;;;;4.28;2.55;;;;;;;;;;4984441;28;20270;-58
2022/03/07 03:46:58;;;;;;;3.60;2.45;;;;;;;;;;4984584;28;20026;-56
2022/03/07 03:49:23;;;;;;;3.70;2.40;;;;;;;;;;4984443;28;20100;-57
2022/03/07 03:51:49;;;;;;;4.07;2.53;;;;;;;;;;4984736;28;20277;-59
2022/03/07 03:54:14;;;;;;;3.40;2.00;;;;;;;;;;4984176;28;20018;-59
2022/03/07 03:56:40;;;;;;;4.70;2.70;;;;;;;;;;4983978;28;20027;-60
2022/03/07 03:59:06;;;;;;;4.18;2.50;;;;;;;;;;4984002;28;20027;-58
2022/03/07 04:01:31;;;;;;;3.78;2.28;;;;;;;;;;4983966;28;20022;-59
2022/03/07 04:03:56;;;;;;;4.17;2.40;;;;;;;;;;4984355;28;20015;-60
2022/03/07 04:06:21;;;;;;;4.40;2.77;;;;;;;;;;4983831;28;20291;-57
2022/03/07 04:08:50;;;;;;;4.20;2.50;;;;;;;;;;4984226;28;20029;-58
2022/03/07 04:11:15;;;;;;;4.45;2.70;;;;;;;;;;4984036;28;20126;-59
2022/03/07 04:13:40;;;;;;;4.68;2.63;;;;;;;;;;4984189;28;20097;-59
2022/03/07 04:16:06;;;;;;;3.93;2.80;;;;;;;;;;4983562;28;20058;-60
2022/03/07 04:18:31;;;;;;;3.53;2.03;;;;;;;;;;4984072;28;20069;-59
2022/03/07 04:20:56;;;;;;;3.70;2.47;;;;;;;;;;4984170;28;20381;-59
2022/03/07 04:23:22;;;;;;;4.83;2.73;;;;;;;;;;4983934;28;20110;-59
2022/03/07 04:25:48;;;;;;;4.07;2.13;;;;;;;;;;4984092;28;20109;-57
2022/03/07 04:28:14;;;;;;;4.30;2.22;;;;;;;;;;4984445;28;21229;-58
2022/03/07 04:30:39;;;;;;;3.50;2.00;;;;;;;;;;4984187;28;20485;-57
2022/03/07 04:33:04;;;;;;;4.32;2.50;;;;;;;;;;4984527;28;20061;-57
2022/03/07 04:35:30;;;;;;;3.97;2.30;;;;;;;;;;4984079;28;20052;-57
2022/03/07 04:37:55;;;;;;;3.45;2.13;;;;;;;;;;4983760;28;20022;-56
2022/03/07 04:40:20;;;;;;;4.17;2.27;;;;;;;;;;4988281;28;20026;-57
2022/03/07 04:42:45;;;;;;;4.28;2.35;;;;;;;;;;4986482;28;20030;-58
2022/03/07 04:45:11;;;;;;;4.22;2.50;;;;;;;;;;4986994;28;20157;-60
2022/03/07 04:47:37;;;;;;;3.67;2.25;;;;;;;;;;4987807;28;20027;-59
2022/03/07 04:50:02;;;;;;;4.07;2.38;;;;;;;;;;4987484;28;20030;-59
2022/03/07 04:52:27;;;;;;;4.32;2.50;;;;;;;;;;4987439;28;20034;-59
2022/03/07 04:54:52;;;;;;;3.43;2.20;;;;;;;;;;4987420;28;20602;-59
2022/03/07 04:57:18;;;;;;;3.77;2.07;;;;;;;;;;4987528;28;20297;-60
2022/03/07 04:59:45;;;;;;;3.50;1.93;;;;;;;;;;4986185;28;20265;-60
2022/03/07 05:02:10;;;;;;;3.40;1.80;;;;;;;;;;4987423;28;20265;-58
2022/03/07 05:04:36;;;;;;;3.53;2.03;;;;;;;;;;4987259;28;20081;-60
2022/03/07 05:07:01;;;;;;;3.40;2.10;;;;;;;;;;4987046;28;20022;-59
2022/03/07 05:09:26;;;;;;;3.37;1.97;;;;;;;;;;4987288;28;20022;-57
2022/03/07 05:11:51;;;;;;;3.03;1.83;;;;;;;;;;4987362;28;20742;-59
2022/03/07 05:14:18;;;;;;;3.73;2.10;;;;;;;;;;4987250;28;20537;-59
2022/03/07 05:16:43;;;;;;;3.03;1.80;;;;;;;;;;4986514;28;20054;-56
2022/03/07 05:19:08;;;;;;;3.30;1.83;;;;;;;;;;4975968;28;20027;-59
2022/03/07 05:21:33;;;;;;;4.13;2.33;;;;;;;;;;4987448;28;20816;-57
2022/03/07 05:23:59;;;;;;;4.40;2.20;;;;;;;;;;4984724;28;20959;-61
2022/03/07 05:26:24;;;;;;;5.22;1.95;;;;;;;;;;4983752;28;20022;-57
2022/03/07 05:28:49;;;;;;;3.55;2.17;;;;;;;;;;4984942;28;20023;-59
2022/03/07 05:31:15;;;;;;;3.83;2.20;;;;;;;;;;4984169;28;20042;-58
2022/03/07 05:33:40;;;;;;;5.53;2.45;;;;;;;;;;4982749;28;20787;-58
2022/03/07 05:36:08;;;;;;;6.95;2.25;;;;;;;;;;4983640;28;20041;-59
2022/03/07 05:38:34;;;;;;;5.70;2.03;;;;;;;;;;4984251;28;20041;-60
2022/03/07 05:40:59;;;;;;;5.28;2.17;;;;;;;;;;4984545;28;20042;-59
2022/03/07 05:43:24;;;;;;;7.47;2.63;;;;;;;;;;4981044;28;20026;-60
2022/03/07 05:45:50;;;;;;;6.63;2.45;;;;;;;;;;4983226;28;20032;-59
2022/03/07 05:48:18;;;;;;;8.60;2.50;;;;;;;;;;4978611;28;20116;-60
2022/03/07 05:50:43;;;;;;;5.50;2.47;;;;;;;;;;4983794;28;20258;-59
2022/03/07 05:53:08;;;;;;;8.87;2.50;;;;;;;;;;4970698;28;20692;-60
2022/03/07 05:55:34;;;;;;;6.40;2.63;;;;;;;;;;4972141;28;20582;-60
2022/03/07 05:58:02;;;;;;;7.90;2.30;;;;;;;;;;4985142;28;20480;-58
2022/03/07 06:00:28;;;;;;;9.27;2.72;;;;;;;;;;4980733;28;20023;-60
2022/03/07 06:02:53;;;;;;;7.40;2.60;;;;;;;;;;4982398;28;20022;-60
2022/03/07 06:05:19;;;;;;;9.57;2.78;;;;;;;;;;4984832;28;20030;-57
2022/03/07 06:07:44;;;;;;;9.18;3.72;;;;;;;;;;4981025;28;20096;-56
2022/03/07 06:10:09;;;;;;;10.23;2.50;;;;;;;;;;4981073;28;20528;-60
2022/03/07 06:12:35;;;;;;;9.73;2.75;;;;;;;;;;4981860;28;20033;-56
2022/03/07 06:15:03;;;;;;;11.07;2.70;;;;;;;;;;4983145;28;20046;-60
2022/03/07 06:17:29;;;;;;;6.80;2.42;;;;;;;;;;4983425;28;20758;-59
2022/03/07 06:19:54;;;;;;;6.85;2.47;;;;;;;;;;4979411;28;20022;-61
2022/03/07 06:22:19;;;;;;;7.07;2.80;;;;;;;;;;4984844;28;20022;-59
2022/03/07 06:24:45;;;;;;;8.17;2.53;;;;;;;;;;5004296;28;20484;-58
2022/03/07 06:27:10;;;;;;;6.20;2.40;;;;;;;;;;4985481;28;20017;-58
2022/03/07 06:29:35;;;;;;;9.75;2.58;;;;;;;;;;4983039;28;20086;-59
2022/03/07 06:32:00;;;;;;;10.50;2.70;;;;;;;;;;4983835;28;20022;-64
2022/03/07 06:34:26;;;;;;;5.45;2.30;;;;;;;;;;4982291;28;20261;-59
2022/03/07 06:36:51;;;;;;;6.30;2.47;;;;;;;;;;4981943;28;20056;-55
2022/03/07 06:39:16;;;;;;;10.15;3.72;;;;;;;;;;4981690;28;20481;-58
2022/03/07 06:41:41;;;;;;;8.27;2.57;;;;;;;;;;4977425;28;20030;-58
2022/03/07 06:44:06;;;;;;;6.13;2.20;;;;;;;;;;4980439;28;20093;-60
2022/03/07 06:46:32;;;;;;;8.77;2.67;;;;;;;;;;4982807;28;20057;-59
2022/03/07 06:48:57;;;;;;;10.60;3.03;;;;;;;;;;4982996;28;20026;-60
2022/03/07 06:51:23;;;;;;;11.57;3.00;;;;;;;;;;4982974;28;20371;-59
2022/03/07 06:53:48;;;;;;;8.52;2.55;;;;;;;;;;4981843;28;20899;-59
2022/03/07 06:56:13;;;;;;;6.10;2.37;;;;;;;;;;4973427;28;20034;-59
2022/03/07 06:58:38;;;;;;;13.30;3.07;;;;;;;;;;4974367;28;20704;-61
2022/03/07 07:01:04;;;;;;;9.37;2.80;;;;;;;;;;4966789;28;20270;-61
2022/03/07 07:03:29;;;;;;;11.83;2.73;;;;;;;;;;4975125;28;20022;-62
2022/03/07 07:05:54;;;;;;;7.70;2.60;;;;;;;;;;4979938;28;20026;-61
2022/03/07 07:08:19;;;;;;;6.93;2.77;;;;;;;;;;4973440;28;20026;-62
2022/03/07 07:10:47;;;;;;;7.45;3.22;;;;;;;;;;4965375;28;20047;-61
2022/03/07 07:13:14;;;;;;;8.68;2.67;;;;;;;;;;4971166;28;20386;-59
2022/03/07 07:15:40;;;;;;;10.40;2.90;;;;;;;;;;4981464;28;20104;-58
2022/03/07 07:18:05;;;;;;;7.25;2.85;;;;;;;;;;4981770;28;20057;-60
2022/03/07 07:20:30;;;;;;;7.90;2.67;;;;;;;;;;4982528;28;20056;-59
2022/03/07 07:22:56;;;;;;;6.65;2.45;;;;;;;;;;4981997;28;20308;-59
2022/03/07 07:25:21;;;;;;;9.73;3.60;;;;;;;;;;4981412;28;20033;-60
2022/03/07 07:27:46;;;;;;;5.83;2.80;;;;;;;;;;4979349;28;20026;-60
2022/03/07 07:30:12;;;;;;;7.60;2.30;;;;;;;;;;4980955;28;20261;-60
2022/03/07 07:32:38;;;;;;;8.40;2.75;;;;;;;;;;4981946;28;20022;-60
2022/03/07 07:35:05;;;;;;;10.98;2.78;;;;;;;;;;4981801;28;20113;-61
2022/03/07 07:37:30;;;;;;;7.60;2.95;;;;;;;;;;4966226;28;20105;-60
2022/03/07 07:39:55;;;;;;;8.97;2.40;;;;;;;;;;4981822;28;20109;-61
2022/03/07 07:42:21;;;;;;;9.13;2.73;;;;;;;;;;4981775;28;20054;-61
2022/03/07 07:44:46;;;;;;;8.17;2.70;;;;;;;;;;4980753;28;20042;-59
2022/03/07 07:47:11;;;;;;;6.83;3.03;;;;;;;;;;4978397;28;20050;-60
2022/03/07 07:49:36;;;;;;;7.47;2.77;;;;;;;;;;4981158;28;20050;-60
2022/03/07 07:52:02;;;;;;;8.02;3.15;;;;;;;;;;4981379;28;20058;-61
2022/03/07 07:54:29;;;;;;;8.10;3.33;;;;;;;;;;4982178;28;20019;-58
2022/03/07 07:56:54;;;;;;;7.78;2.70;;;;;;;;;;4987289;28;20057;-58
2022/03/07 07:59:20;;;;;;;7.57;3.10;;;;;;;;;;4986870;28;20497;-60
2022/03/07 08:01:45;;;;;;;5.93;2.77;;;;;;;;;;4983725;28;20727;-59
2022/03/07 08:04:12;;;;;;;8.25;2.80;;;;;;;;;;4978575;28;20484;-60
2022/03/07 08:06:37;;;;;;;8.02;2.72;;;;;;;;;;4981252;28;20021;-59
2022/03/07 08:09:03;;;;;;;7.60;2.87;;;;;;;;;;4979315;28;20097;-60
2022/03/07 08:11:29;;;;;;;9.57;3.05;;;;;;;;;;4981690;28;20273;-60
2022/03/07 08:13:54;;;;;;;7.80;2.80;;;;;;;;;;4981361;28;20022;-59
2022/03/07 08:16:20;;;;;;;6.97;3.17;;;;;;;;;;4988633;28;20107;-59
2022/03/07 08:18:45;;;;;;;7.53;3.58;;;;;;;;;;4987897;28;20038;-63
2022/03/07 08:21:11;;;;;;;8.40;3.15;;;;;;;;;;4989988;28;20411;-58
2022/03/07 08:23:36;;;;;;;5.17;2.70;;;;;;;;;;4992298;28;20033;-60
2022/03/07 08:26:05;;;;;;;8.83;3.13;;;;;;;;;;5010311;28;20018;-60
2022/03/07 08:28:45;;;;;;;5.88;2.92;;;;;;;;;;5002859;28;20022;-56
2022/03/07 08:31:10;;;;;;;8.02;3.40;;;;;;;;;;5000202;28;20400;-60
2022/03/07 08:33:37;;;;;;;7.03;3.15;;;;;;;;;;4999186;28;20023;-60
2022/03/07 08:36:09;;;;;;;6.18;3.10;;;;;;;;;;5000968;28;20037;-63
2022/03/07 08:38:34;;;;;;;6.30;3.13;;;;;;;;;;5003365;28;20042;-64
2022/03/07 08:41:00;;;;;;;6.88;3.50;;;;;;;;;;4988949;28;20030;-60
2022/03/07 08:43:25;;;;;;;8.52;3.42;;;;;;;;;;4988113;28;20035;-60
2022/03/07 08:45:50;;;;;;;6.10;3.30;;;;;;;;;;4992457;28;20014;-60
2022/03/07 08:48:15;;;;;;;8.37;3.60;;;;;;;;;;4993596;28;20022;-59
2022/03/07 08:50:41;;;;;;;7.20;3.23;;;;;;;;;;4988348;28;20265;-59
2022/03/07 08:53:06;;;;;;;7.03;3.40;;;;;;;;;;4984921;28;20772;-59
2022/03/07 08:55:31;;;;;;;6.65;3.72;;;;;;;;;;4985168;28;20088;-59
2022/03/07 08:57:57;;;;;;;6.40;3.00;;;;;;;;;;4984480;28;20085;-60
2022/03/07 09:00:22;;;;;;;7.45;3.80;;;;;;;;;;4998310;28;20291;-62
2022/03/07 09:02:47;;;;;;;10.60;3.97;;;;;;;;;;4992874;28;20031;-61
2022/03/07 09:05:16;;;;;;;7.90;3.65;;;;;;;;;;4985125;28;20730;-60
2022/03/07 09:07:42;;;;;;;6.53;3.30;;;;;;;;;;4984553;28;20088;-60
2022/03/07 09:10:07;;;;;;;8.80;3.47;;;;;;;;;;4981278;28;20455;-60
2022/03/07 09:12:32;;;;;;;8.05;3.90;;;;;;;;;;4984056;28;20523;-60
2022/03/07 09:14:59;;;;;;;6.53;3.33;;;;;;;;;;4941116;28;1186947;-59
2022/03/07 09:17:24;;;;;;;8.27;3.28;;;;;;;;;;4983129;28;20038;-61
2022/03/07 09:19:49;;;;;;;7.18;3.60;;;;;;;;;;4983734;28;20112;-60
2022/03/07 09:22:15;;;;;;;5.85;3.40;;;;;;;;;;4983588;28;20026;-59
2022/03/07 09:24:40;;;;;;;6.23;3.20;;;;;;;;;;4983487;28;20034;-59
2022/03/07 09:27:05;;;;;;;5.37;3.07;;;;;;;;;;4983001;28;20034;-61
2022/03/07 09:29:30;;;;;;;5.10;3.03;;;;;;;;;;4983720;28;20348;-60
2022/03/07 09:31:56;;;;;;;6.30;3.23;;;;;;;;;;4983335;28;20129;-57
2022/03/07 09:34:21;;;;;;;5.88;3.20;;;;;;;;;;4983720;28;20320;-59
2022/03/07 09:36:46;;;;;;;6.20;3.27;;;;;;;;;;4983259;28;20034;-58
2022/03/07 09:39:11;;;;;;;6.83;3.40;;;;;;;;;;4983453;28;20029;-61
2022/03/07 09:41:37;;;;;;;6.93;3.10;;;;;;;;;;4983442;28;20580;-60
2022/03/07 09:44:02;;;;;;;6.53;3.30;;;;;;;;;;4983173;28;21049;-60
2022/03/07 09:46:27;;;;;;;6.80;3.15;;;;;;;;;;4981025;28;20720;-59
2022/03/07 09:48:52;;;;;;;5.80;3.40;;;;;;;;;;4983146;28;20504;-59
2022/03/07 09:51:18;;;;;;;5.95;3.30;;;;;;;;;;4982920;28;20538;-59
2022/03/07 09:53:43;;;;;;;5.37;3.40;;;;;;;;;;4982610;28;20019;-59
2022/03/07 09:56:08;;;;;;;6.93;3.65;;;;;;;;;;4982882;28;20270;-59
2022/03/07 09:58:33;;;;;;;6.03;3.63;;;;;;;;;;4983862;28;20066;-59
2022/03/07 10:01:09;;;;;;;6.20;3.30;;;;;;;;;;4983227;28;20065;-59
2022/03/07 10:03:34;;;;;;;4.82;2.97;;;;;;;;;;4982687;28;20426;-60
2022/03/07 10:06:00;;;;;;;4.95;3.30;;;;;;;;;;4982705;28;20125;-59
2022/03/07 10:08:26;;;;;;;4.70;2.93;;;;;;;;;;4981235;28;20057;-60
2022/03/07 10:10:52;;;;;;;5.15;3.38;;;;;;;;;;4980950;28;20068;-60
2022/03/07 10:13:17;;;;;;;5.53;3.45;;;;;;;;;;4982534;28;20026;-60
2022/03/07 10:15:43;;;;;;;4.67;2.90;;;;;;;;;;4982003;28;20848;-56
2022/03/07 10:18:14;;;;;;;4.33;2.83;;;;;;;;;;4982596;28;20344;-61
2022/03/07 10:20:47;;;;;;;7.03;3.08;;;;;;;;;;4972766;28;20061;-62
2022/03/07 10:23:12;;;;;;;5.60;3.00;;;;;;;;;;4982880;28;20029;-64
2022/03/07 10:25:38;;;;;;;5.80;3.17;;;;;;;;;;4982687;28;20447;-65
2022/03/07 10:28:03;;;;;;;5.35;2.95;;;;;;;;;;4982336;28;20299;-60
2022/03/07 10:30:29;;;;;;;5.57;3.15;;;;;;;;;;4982212;28;20538;-64
2022/03/07 10:32:58;;;;;;;4.93;2.78;;;;;;;;;;4982790;28;20450;-65
2022/03/07 10:35:23;;;;;;;4.85;2.95;;;;;;;;;;4982047;28;20054;-59
2022/03/07 10:37:48;;;;;;;4.05;2.33;;;;;;;;;;4976963;28;20627;-63
2022/03/07 10:40:18;;;;;;;5.03;2.97;;;;;;;;;;4982390;28;20109;-62
2022/03/07 10:42:44;;;;;;;5.07;2.85;;;;;;;;;;4980464;28;20034;-60
2022/03/07 10:45:09;;;;;;;5.93;3.10;;;;;;;;;;4981929;28;20117;-60
2022/03/07 10:47:34;;;;;;;4.28;2.95;;;;;;;;;;4982411;28;20053;-61
2022/03/07 10:50:00;;;;;;;4.87;2.80;;;;;;;;;;4982243;28;20022;-61
2022/03/07 10:52:26;;;;;;;5.43;3.33;;;;;;;;;;4982041;28;21050;-61
2022/03/07 10:54:51;;;;;;;4.93;3.22;;;;;;;;;;4982016;28;20101;-60
2022/03/07 10:57:20;;;;;;;4.77;3.20;;;;;;;;;;4968024;28;20030;-60
2022/03/07 10:59:45;;;;;;;4.32;2.70;;;;;;;;;;4982296;28;20830;-61
2022/03/07 11:02:11;;;;;;;5.33;2.80;;;;;;;;;;4981843;28;20030;-60
2022/03/07 11:04:37;;;;;;;4.82;3.28;;;;;;;;;;4982013;28;20659;-61
2022/03/07 11:07:03;;;;;;;5.28;3.05;;;;;;;;;;4980580;28;20495;-61
2022/03/07 11:09:28;;;;;;;4.88;3.00;;;;;;;;;;4981690;28;20014;-61
2022/03/07 11:11:53;;;;;;;5.07;2.83;;;;;;;;;;4981966;28;20057;-61
2022/03/07 11:14:19;;;;;;;3.67;2.73;;;;;;;;;;4982065;28;20274;-60
2022/03/07 11:16:45;;;;;;;5.00;3.10;;;;;;;;;;4980772;28;20108;-60
2022/03/07 11:19:10;;;;;;;4.95;2.80;;;;;;;;;;4981345;28;20026;-59
2022/03/07 11:21:36;;;;;;;4.20;2.80;;;;;;;;;;4981835;28;20033;-60
2022/03/07 11:24:01;;;;;;;4.57;3.13;;;;;;;;;;4980133;28;20034;-60
2022/03/07 11:26:26;;;;;;;5.13;3.42;;;;;;;;;;4981465;28;20257;-61
2022/03/07 11:28:51;;;;;;;6.28;3.45;;;;;;;;;;4981761;28;20420;-59
2022/03/07 11:31:20;;;;;;;3.97;2.97;;;;;;;;;;4979757;28;20057;-61
2022/03/07 11:33:49;;;;;;;5.38;3.20;;;;;;;;;;4981414;28;20030;-59
2022/03/07 11:36:16;;;;;;;6.40;3.03;;;;;;;;;;4981716;28;20030;-62
2022/03/07 11:38:48;;;;;;;3.97;2.80;;;;;;;;;;4979618;28;20038;-62
2022/03/07 11:41:14;;;;;;;4.38;3.00;;;;;;;;;;4996516;28;20026;-63
2022/03/07 11:43:48;;;;;;;4.50;2.80;;;;;;;;;;5001180;28;20774;-58
2022/03/07 11:46:23;;;;;;;3.95;2.72;;;;;;;;;;4992810;28;20269;-62
2022/03/07 11:48:49;;;;;;;4.20;2.92;;;;;;;;;;4981387;28;20093;-60
2022/03/07 11:51:21;;;;;;;4.28;3.10;;;;;;;;;;4981806;28;20069;-61
2022/03/07 11:53:46;;;;;;;5.65;3.30;;;;;;;;;;4981414;28;20090;-62
2022/03/07 11:56:15;;;;;;;4.30;2.75;;;;;;;;;;4981171;28;20109;-61
2022/03/07 11:58:44;;;;;;;5.75;2.70;;;;;;;;;;4980952;28;20113;-62
2022/03/07 12:01:10;;;;;;;4.55;2.92;;;;;;;;;;4981152;28;20026;-62
2022/03/07 12:03:35;;;;;;;4.45;3.08;;;;;;;;;;4981518;28;20563;-63
2022/03/07 12:06:09;;;;;;;4.60;2.67;;;;;;;;;;4979955;28;20105;-62
2022/03/07 12:08:54;;;;;;;4.40;2.90;;;;;;;;;;4981361;28;20528;-63
2022/03/07 12:11:23;;;;;;;5.25;2.97;;;;;;;;;;4981344;28;20113;-63
2022/03/07 12:13:48;;;;;;;4.70;2.97;;;;;;;;;;4981736;28;20033;-62
2022/03/07 12:16:26;;;;;;;4.35;2.78;;;;;;;;;;4979478;28;20058;-63
2022/03/07 12:18:52;;;;;;;4.75;3.03;;;;;;;;;;4979810;28;20050;-63
2022/03/07 12:21:23;;;;;;;4.28;2.95;;;;;;;;;;4981239;28;20038;-62
2022/03/07 12:23:49;;;;;;;4.10;2.83;;;;;;;;;;4981165;28;20033;-63
2022/03/07 12:26:14;;;;;;;4.47;2.90;;;;;;;;;;4980019;28;20026;-63
2022/03/07 12:28:47;;;;;;;4.97;3.20;;;;;;;;;;4981160;28;20026;-62
2022/03/07 12:31:12;;;;;;;4.07;3.03;;;;;;;;;;4981050;28;20704;-60
2022/03/07 12:33:38;;;;;;;4.10;2.80;;;;;;;;;;4981370;28;20025;-60
2022/03/07 12:36:12;;;;;;;5.63;2.88;;;;;;;;;;4979631;28;20679;-62
2022/03/07 12:38:50;;;;;;;4.95;3.00;;;;;;;;;;4981010;28;20062;-62
2022/03/07 12:41:18;;;;;;;5.07;3.28;;;;;;;;;;4981328;28;20030;-62
2022/03/07 12:43:44;;;;;;;4.68;3.10;;;;;;;;;;4979429;28;20030;-62
2022/03/07 12:46:10;;;;;;;4.88;3.00;;;;;;;;;;4980446;28;20029;-60
2022/03/07 12:48:36;;;;;;;4.68;2.85;;;;;;;;;;4981587;28;20117;-62
2022/03/07 12:51:05;;;;;;;4.70;2.90;;;;;;;;;;4981667;28;20580;-62
2022/03/07 12:53:30;;;;;;;5.45;3.08;;;;;;;;;;4981028;28;20018;-61
2022/03/07 12:56:05;;;;;;;5.30;3.37;;;;;;;;;;4979738;28;20085;-62
2022/03/07 12:58:30;;;;;;;4.68;2.80;;;;;;;;;;4981075;28;20297;-61
2022/03/07 13:00:57;;;;;;;4.50;2.92;;;;;;;;;;4982507;28;20026;-63
2022/03/07 13:03:22;;;;;;;4.50;2.90;;;;;;;;;;4984537;28;20038;-61
2022/03/07 13:05:58;;;;;;;4.35;2.70;;;;;;;;;;4984588;28;20520;-63
2022/03/07 13:08:23;;;;;;;4.78;3.00;;;;;;;;;;4984234;28;20034;-58
2022/03/07 13:10:51;;;;;;;4.68;2.97;;;;;;;;;;4985236;28;20027;-63
2022/03/07 13:13:17;;;;;;;4.55;3.20;;;;;;;;;;4987748;28;20909;-61
2022/03/07 13:15:42;;;;;;;5.80;3.33;;;;;;;;;;4984712;28;20079;-59
2022/03/07 13:18:07;;;;;;;5.68;2.88;;;;;;;;;;4983129;28;20054;-62
2022/03/07 13:20:33;;;;;;;5.03;3.20;;;;;;;;;;4984437;28;20062;-61
2022/03/07 13:23:01;;;;;;;5.18;3.30;;;;;;;;;;4984005;28;20026;-61
2022/03/07 13:25:26;;;;;;;5.85;3.30;;;;;;;;;;4983822;28;20030;-62
2022/03/07 13:27:52;;;;;;;5.57;3.35;;;;;;;;;;4984847;28;20032;-62
2022/03/07 13:30:17;;;;;;;5.43;3.20;;;;;;;;;;4985224;28;20789;-58
2022/03/07 13:32:42;;;;;;;6.43;3.67;;;;;;;;;;4984645;28;20320;-60
2022/03/07 13:35:28;;;;;;;5.90;3.65;;;;;;;;;;4984537;28;20266;-63
2022/03/07 13:37:53;;;;;;;4.90;3.35;;;;;;;;;;4977157;28;20108;-63
2022/03/07 13:40:20;;;;;;;5.55;3.80;;;;;;;;;;4984099;28;20026;-62
2022/03/07 13:42:46;;;;;;;6.22;3.72;;;;;;;;;;4983860;28;20041;-60
2022/03/07 13:45:12;;;;;;;6.75;3.53;;;;;;;;;;4998789;28;20030;-62
2022/03/07 13:47:38;;;;;;;5.03;3.40;;;;;;;;;;4983864;28;20117;-62
2022/03/07 13:50:04;;;;;;;5.78;3.53;;;;;;;;;;4983566;28;20148;-61
2022/03/07 13:52:30;;;;;;;5.43;3.65;;;;;;;;;;4992282;28;20026;-62
2022/03/07 13:54:57;;;;;;;5.55;3.70;;;;;;;;;;5003258;28;20555;-63
2022/03/07 13:57:24;;;;;;;5.40;3.78;;;;;;;;;;4985699;28;20090;-58
2022/03/07 14:00:04;;;;;;;5.85;3.90;;;;;;;;;;4982746;28;20026;-62
2022/03/07 14:02:31;;;;;;;5.95;3.83;;;;;;;;;;4982396;28;20049;-61
2022/03/07 14:04:59;;;;;;;7.22;4.10;;;;;;;;;;4983872;28;20118;-62
2022/03/07 14:07:29;;;;;;;5.32;3.55;;;;;;;;;;4987100;28;20037;-62
2022/03/07 14:09:55;;;;;;;6.32;3.85;;;;;;;;;;4984083;28;20029;-63
2022/03/07 14:12:27;;;;;;;6.50;3.97;;;;;;;;;;4982743;28;20022;-62
2022/03/07 14:15:03;;;;;;;5.82;4.07;;;;;;;;;;4985662;28;20531;-62
2022/03/07 14:17:28;;;;;;;7.40;4.30;;;;;;;;;;4982695;28;20054;-62
2022/03/07 14:19:55;;;;;;;6.05;4.22;;;;;;;;;;4983252;28;20022;-63
2022/03/07 14:22:21;;;;;;;5.20;3.65;;;;;;;;;;4985286;28;20018;-58
2022/03/07 14:24:48;;;;;;;6.80;4.60;;;;;;;;;;4989222;28;20025;-64
2022/03/07 14:27:13;;;;;;;5.78;4.10;;;;;;;;;;4987931;28;20030;-62
2022/03/07 14:29:38;;;;;;;6.93;4.40;;;;;;;;;;4983321;28;20057;-63
2022/03/07 14:32:04;;;;;;;6.07;4.28;;;;;;;;;;4982454;28;20018;-63
2022/03/07 14:34:30;;;;;;;5.93;4.10;;;;;;;;;;4982462;28;20093;-62
2022/03/07 14:36:55;;;;;;;6.67;4.23;;;;;;;;;;4981868;28;20053;-60